createdAt,value
2019-02-10T00:00:02.276Z,2.30
2019-02-10T00:01:02.265Z,2.60
2019-02-10T00:02:02.253Z,2.40
2019-02-10T00:03:02.280Z,2.20
2019-02-10T00:04:02.234Z,2.40
2019-02-10T00:05:02.221Z,2.10
2019-02-10T00:06:02.210Z,2.40
2019-02-10T00:07:02.202Z,2.10
2019-02-10T00:08:02.195Z,1.90
2019-02-10T00:09:02.187Z,2.50
2019-02-10T00:10:02.167Z,2.10
2019-02-10T00:11:02.156Z,2.20
2019-02-10T00:12:02.145Z,2.70
2019-02-10T00:13:02.136Z,2.10
2019-02-10T00:14:02.132Z,2.20
2019-02-10T00:15:02.112Z,2.30
2019-02-10T00:16:02.104Z,2.00
2019-02-10T00:17:02.090Z,2.40
2019-02-10T00:18:02.080Z,1.80
2019-02-10T00:19:02.079Z,2.30
2019-02-10T00:20:02.062Z,2.60
2019-02-10T00:21:02.051Z,2.10
2019-02-10T00:22:02.037Z,2.40
2019-02-10T00:23:02.026Z,2.30
2019-02-10T00:24:02.029Z,2.30
2019-02-10T00:25:02.008Z,2.50
2019-02-10T00:26:01.999Z,2.10
2019-02-10T00:27:01.984Z,2.20
2019-02-10T00:28:01.974Z,2.30
2019-02-10T00:29:01.971Z,2.40
2019-02-10T00:30:01.951Z,2.50
2019-02-10T00:31:01.942Z,2.30
2019-02-10T00:32:01.936Z,2.30
2019-02-10T00:33:01.919Z,2.40
2019-02-10T00:34:01.919Z,2.30
2019-02-10T00:35:01.901Z,2.20
2019-02-10T00:36:01.891Z,2.40
2019-02-10T00:37:01.881Z,2.60
2019-02-10T00:38:01.868Z,2.60
2019-02-10T00:39:01.882Z,2.40
2019-02-10T00:40:01.851Z,2.80
2019-02-10T00:41:01.837Z,2.50
2019-02-10T00:42:01.828Z,2.60
2019-02-10T00:43:01.816Z,2.70
2019-02-10T00:44:01.801Z,2.20
2019-02-10T00:45:01.799Z,2.20
2019-02-10T00:46:01.786Z,2.80
2019-02-10T00:47:01.770Z,2.40
2019-02-10T00:48:01.763Z,2.80
2019-02-10T00:49:01.777Z,2.70
2019-02-10T00:50:01.755Z,2.20
2019-02-10T00:51:01.727Z,2.40
2019-02-10T00:52:01.721Z,2.20
2019-02-10T00:53:01.705Z,2.50
2019-02-10T00:54:01.694Z,2.40
2019-02-10T00:55:01.699Z,2.70
2019-02-10T00:56:01.672Z,2.40
2019-02-10T00:57:01.664Z,2.30
2019-02-10T00:58:01.652Z,2.50
2019-02-10T00:59:01.641Z,2.50
2019-02-10T01:00:01.639Z,2.50
2019-02-10T01:01:01.622Z,2.30
2019-02-10T01:02:01.632Z,2.30
2019-02-10T01:03:01.598Z,2.80
2019-02-10T01:04:01.588Z,2.40
2019-02-10T01:05:01.597Z,2.60
2019-02-10T01:06:01.568Z,2.60
2019-02-10T01:07:01.559Z,2.30
2019-02-10T01:08:01.545Z,2.80
2019-02-10T01:09:01.534Z,2.30
2019-02-10T01:10:01.530Z,2.30
2019-02-10T01:11:01.515Z,2.60
2019-02-10T01:12:01.508Z,2.30
2019-02-10T01:13:01.490Z,2.70
2019-02-10T01:14:01.481Z,2.50
2019-02-10T01:15:01.479Z,2.50
2019-02-10T01:16:01.458Z,2.90
2019-02-10T01:17:01.448Z,2.50
2019-02-10T01:18:01.458Z,2.80
2019-02-10T01:19:01.427Z,3.30
2019-02-10T01:20:01.424Z,2.70
2019-02-10T01:21:01.404Z,2.60
2019-02-10T01:22:01.393Z,2.30
2019-02-10T01:23:01.383Z,2.60
2019-02-10T01:24:01.373Z,2.80
2019-02-10T01:25:01.377Z,3.00
2019-02-10T01:26:01.351Z,2.50
2019-02-10T01:27:01.341Z,2.60
2019-02-10T01:28:01.328Z,2.60
2019-02-10T01:29:01.319Z,2.60
2019-02-10T01:30:01.315Z,2.40
2019-02-10T01:31:01.295Z,2.70
2019-02-10T01:32:01.284Z,2.50
2019-02-10T01:33:01.274Z,2.90
2019-02-10T01:34:01.263Z,2.60
2019-02-10T01:35:01.265Z,2.70
2019-02-10T01:36:01.241Z,2.80
2019-02-10T01:37:01.230Z,2.50
2019-02-10T01:38:01.220Z,2.70
2019-02-10T01:39:01.209Z,2.60
2019-02-10T01:40:01.211Z,2.50
2019-02-10T01:41:01.188Z,3.20
2019-02-10T01:42:01.179Z,2.60
2019-02-10T01:43:01.165Z,2.60
2019-02-10T01:44:01.155Z,3.00
2019-02-10T01:45:01.154Z,2.40
2019-02-10T01:46:01.134Z,2.70
2019-02-10T01:47:01.124Z,2.90
2019-02-10T01:48:01.114Z,2.40
2019-02-10T01:49:01.103Z,2.90
2019-02-10T01:50:01.101Z,2.50
2019-02-10T01:51:01.080Z,2.80
2019-02-10T01:52:01.071Z,2.70
2019-02-10T01:53:01.061Z,2.90
2019-02-10T01:54:01.054Z,2.50
2019-02-10T01:55:01.050Z,2.80
2019-02-10T01:56:01.029Z,2.70
2019-02-10T01:57:01.017Z,2.80
2019-02-10T01:58:01.007Z,2.70
2019-02-10T01:59:00.999Z,2.80
2019-02-10T02:00:00.993Z,3.00
2019-02-10T02:01:00.973Z,2.50
2019-02-10T02:02:00.963Z,2.90
2019-02-10T02:03:00.952Z,2.30
2019-02-10T02:04:00.942Z,2.80
2019-02-10T02:05:00.940Z,2.60
2019-02-10T02:06:00.923Z,2.70
2019-02-10T02:07:00.911Z,2.90
2019-02-10T02:08:00.899Z,3.20
2019-02-10T02:09:00.888Z,2.70
2019-02-10T02:10:00.887Z,2.90
2019-02-10T02:11:00.866Z,2.70
2019-02-10T02:12:00.855Z,3.00
2019-02-10T02:13:00.845Z,2.80
2019-02-10T02:14:00.838Z,2.90
2019-02-10T02:15:00.831Z,2.70
2019-02-10T02:16:00.815Z,2.80
2019-02-10T02:17:00.803Z,2.90
2019-02-10T02:18:00.792Z,2.90
2019-02-10T02:19:00.781Z,2.80
2019-02-10T02:20:00.802Z,2.80
2019-02-10T02:21:00.759Z,2.90
2019-02-10T02:22:00.754Z,2.90
2019-02-10T02:23:00.746Z,2.60
2019-02-10T02:24:00.728Z,2.70
2019-02-10T02:25:00.836Z,3.00
2019-02-10T02:26:00.706Z,2.90
2019-02-10T02:27:00.698Z,2.90
2019-02-10T02:28:00.685Z,2.60
2019-02-10T02:29:00.675Z,2.80
2019-02-10T02:30:00.673Z,3.00
2019-02-10T02:31:00.670Z,2.90
2019-02-10T02:32:00.643Z,3.10
2019-02-10T02:33:00.632Z,3.10
2019-02-10T02:34:00.624Z,3.00
2019-02-10T02:35:00.625Z,3.10
2019-02-10T02:36:00.602Z,3.10
2019-02-10T02:37:07.596Z,2.70
2019-02-10T02:38:01.579Z,3.00
2019-02-10T02:39:00.571Z,3.10
2019-02-10T02:40:00.566Z,2.60
2019-02-10T02:41:00.543Z,2.90
2019-02-10T02:42:00.534Z,2.80
2019-02-10T02:43:00.527Z,2.80
2019-02-10T02:44:00.517Z,3.00
2019-02-10T02:45:00.510Z,2.80
2019-02-10T02:46:00.490Z,2.80
2019-02-10T02:47:00.479Z,3.00
2019-02-10T02:48:00.473Z,3.10
2019-02-10T02:49:00.459Z,2.80
2019-02-10T02:50:00.502Z,3.20
2019-02-10T02:51:00.965Z,2.90
2019-02-10T02:52:00.429Z,2.70
2019-02-10T02:53:00.421Z,2.70
2019-02-10T02:54:00.405Z,2.80
2019-02-10T02:55:00.411Z,3.00
2019-02-10T02:56:00.383Z,2.80
2019-02-10T02:57:00.372Z,2.90
2019-02-10T02:58:00.360Z,2.90
2019-02-10T02:59:00.349Z,2.60
2019-02-10T03:00:00.499Z,3.00
2019-02-10T03:01:00.330Z,2.70
2019-02-10T03:02:00.319Z,2.70
2019-02-10T03:03:00.321Z,2.70
2019-02-10T03:04:00.297Z,2.90
2019-02-10T03:05:00.355Z,2.80
2019-02-10T03:06:00.282Z,3.20
2019-02-10T03:07:00.266Z,3.00
2019-02-10T03:08:00.255Z,2.70
2019-02-10T03:09:00.252Z,2.80
2019-02-10T03:10:00.292Z,2.90
2019-02-10T03:11:00.229Z,2.80
2019-02-10T03:12:00.217Z,2.80
2019-02-10T03:13:00.202Z,2.70
2019-02-10T03:14:00.188Z,2.60
2019-02-10T03:15:00.344Z,2.80
2019-02-10T03:16:00.174Z,3.00
2019-02-10T03:17:00.155Z,2.60
2019-02-10T03:18:00.146Z,2.90
2019-02-10T03:19:00.133Z,3.00
2019-02-10T03:20:00.286Z,2.70
2019-02-10T03:21:00.130Z,3.20
2019-02-10T03:22:00.105Z,2.80
2019-02-10T03:23:00.102Z,3.00
2019-02-10T03:24:00.079Z,3.20
2019-02-10T03:25:00.149Z,3.00
2019-02-10T03:26:00.081Z,3.10
2019-02-10T03:27:00.047Z,2.70
2019-02-10T03:28:00.041Z,2.90
2019-02-10T03:29:00.027Z,2.60
2019-02-10T03:30:00.013Z,2.90
2019-02-10T03:31:00.012Z,2.90
2019-02-10T03:31:59.998Z,2.70
2019-02-10T03:32:59.982Z,2.90
2019-02-10T03:33:59.975Z,2.80
2019-02-10T03:34:59.970Z,3.00
2019-02-10T03:35:59.962Z,2.50
2019-02-10T03:36:59.941Z,2.90
2019-02-10T03:37:59.930Z,2.70
2019-02-10T03:38:59.916Z,2.60
2019-02-10T03:39:59.906Z,2.80
2019-02-10T03:40:59.905Z,2.60
2019-02-10T03:41:59.884Z,2.80
2019-02-10T03:42:59.874Z,2.80
2019-02-10T03:43:59.861Z,2.80
2019-02-10T03:44:59.851Z,2.50
2019-02-10T03:45:59.850Z,2.70
2019-02-10T03:46:59.830Z,2.80
2019-02-10T03:47:59.818Z,2.70
2019-02-10T03:48:59.821Z,2.80
2019-02-10T03:49:59.798Z,2.50
2019-02-10T03:50:59.794Z,3.00
2019-02-10T03:51:59.782Z,2.80
2019-02-10T03:52:59.766Z,2.90
2019-02-10T03:53:59.755Z,2.70
2019-02-10T03:54:59.745Z,2.80
2019-02-10T03:55:59.744Z,3.30
2019-02-10T03:56:59.723Z,2.70
2019-02-10T03:57:59.710Z,2.60
2019-02-10T03:58:59.703Z,2.80
2019-02-10T03:59:59.691Z,2.90
2019-02-10T04:00:59.686Z,2.80
2019-02-10T04:01:59.666Z,3.30
2019-02-10T04:02:59.656Z,2.80
2019-02-10T04:03:59.644Z,2.70
2019-02-10T04:04:59.638Z,3.00
2019-02-10T04:05:59.630Z,2.70
2019-02-10T04:06:59.612Z,2.80
2019-02-10T04:07:59.602Z,2.50
2019-02-10T04:08:59.593Z,2.60
2019-02-10T04:09:59.578Z,2.40
2019-02-10T04:10:59.579Z,2.60
2019-02-10T04:11:59.557Z,2.60
2019-02-10T04:12:59.548Z,2.50
2019-02-10T04:13:59.535Z,2.60
2019-02-10T04:14:59.526Z,2.40
2019-02-10T04:15:59.530Z,3.00
2019-02-10T04:16:59.506Z,2.60
2019-02-10T04:17:59.496Z,2.50
2019-02-10T04:18:59.483Z,2.90
2019-02-10T04:19:59.470Z,2.70
2019-02-10T04:20:59.468Z,2.60
2019-02-10T04:21:59.450Z,2.40
2019-02-10T04:22:59.438Z,2.90
2019-02-10T04:23:59.433Z,2.90
2019-02-10T04:24:59.423Z,2.60
2019-02-10T04:25:59.413Z,2.90
2019-02-10T04:26:59.395Z,2.60
2019-02-10T04:27:59.387Z,3.00
2019-02-10T04:28:59.373Z,2.90
2019-02-10T04:29:59.362Z,2.70
2019-02-10T04:30:59.361Z,3.00
2019-02-10T04:31:59.341Z,2.70
2019-02-10T04:32:59.330Z,2.90
2019-02-10T04:33:59.329Z,2.60
2019-02-10T04:34:59.309Z,2.60
2019-02-10T04:35:59.309Z,2.50
2019-02-10T04:36:59.286Z,2.80
2019-02-10T04:37:59.275Z,2.80
2019-02-10T04:38:59.267Z,2.80
2019-02-10T04:39:59.273Z,3.00
2019-02-10T04:40:59.254Z,2.70
2019-02-10T04:41:59.232Z,2.80
2019-02-10T04:42:59.222Z,2.80
2019-02-10T04:43:59.209Z,3.00
2019-02-10T04:44:59.199Z,3.00
2019-02-10T04:45:59.206Z,3.10
2019-02-10T04:46:59.197Z,3.20
2019-02-10T04:47:59.168Z,3.00
2019-02-10T04:48:59.156Z,2.70
2019-02-10T04:49:59.146Z,2.80
2019-02-10T04:50:59.144Z,2.80
2019-02-10T04:51:59.126Z,2.80
2019-02-10T04:52:59.112Z,3.10
2019-02-10T04:53:59.103Z,3.20
2019-02-10T04:54:59.091Z,2.90
2019-02-10T04:55:59.109Z,3.50
2019-02-10T04:56:59.073Z,3.20
2019-02-10T04:57:59.059Z,3.30
2019-02-10T04:58:59.047Z,3.20
2019-02-10T04:59:59.038Z,3.10
2019-02-10T05:00:59.030Z,3.70
2019-02-10T05:01:59.026Z,3.40
2019-02-10T05:02:59.004Z,3.60
2019-02-10T05:03:58.993Z,3.20
2019-02-10T05:04:58.983Z,2.90
2019-02-10T05:05:58.974Z,3.10
2019-02-10T05:06:58.970Z,2.80
2019-02-10T05:07:58.951Z,3.40
2019-02-10T05:08:58.941Z,2.60
2019-02-10T05:09:58.930Z,2.90
2019-02-10T05:10:58.918Z,2.80
2019-02-10T05:11:58.915Z,3.00
2019-02-10T05:12:58.898Z,3.10
2019-02-10T05:13:58.884Z,3.00
2019-02-10T05:14:58.875Z,3.00
2019-02-10T05:15:58.869Z,2.70
2019-02-10T05:16:58.862Z,3.00
2019-02-10T05:17:58.863Z,2.70
2019-02-10T05:18:58.833Z,3.00
2019-02-10T05:19:58.820Z,2.90
2019-02-10T05:20:58.813Z,2.90
2019-02-10T05:21:58.807Z,3.00
2019-02-10T05:22:58.787Z,3.00
2019-02-10T05:24:03.596Z,3.10
2019-02-10T05:24:58.766Z,2.90
2019-02-10T05:25:58.757Z,2.90
2019-02-10T05:26:58.781Z,2.80
2019-02-10T05:27:58.734Z,2.80
2019-02-10T05:28:58.738Z,2.80
2019-02-10T05:29:58.714Z,3.10
2019-02-10T05:30:58.715Z,2.90
2019-02-10T05:31:58.698Z,2.90
2019-02-10T05:32:58.695Z,2.90
2019-02-10T05:33:58.670Z,2.80
2019-02-10T05:34:58.658Z,3.00
2019-02-10T05:35:58.648Z,2.90
2019-02-10T05:36:58.644Z,3.10
2019-02-10T05:38:04.327Z,2.70
2019-02-10T05:38:59.617Z,3.00
2019-02-10T05:39:58.603Z,2.80
2019-02-10T05:40:58.591Z,3.00
2019-02-10T05:41:58.593Z,2.80
2019-02-10T05:42:58.569Z,2.50
2019-02-10T05:43:58.562Z,2.90
2019-02-10T05:44:58.547Z,2.60
2019-02-10T05:45:58.540Z,2.70
2019-02-10T05:46:58.538Z,2.90
2019-02-10T05:47:58.518Z,2.80
2019-02-10T05:48:58.512Z,3.00
2019-02-10T05:49:58.493Z,3.00
2019-02-10T05:50:58.482Z,2.80
2019-02-10T05:51:58.487Z,2.80
2019-02-10T05:52:58.462Z,2.90
2019-02-10T05:53:58.457Z,2.80
2019-02-10T05:54:58.439Z,2.80
2019-02-10T05:55:58.427Z,2.80
2019-02-10T05:56:58.429Z,3.10
2019-02-10T05:57:58.408Z,3.10
2019-02-10T05:58:58.430Z,2.80
2019-02-10T05:59:58.385Z,3.40
2019-02-10T06:00:58.373Z,2.70
2019-02-10T06:01:58.371Z,2.80
2019-02-10T06:02:58.351Z,2.80
2019-02-10T06:03:58.341Z,2.80
2019-02-10T06:04:58.329Z,2.90
2019-02-10T06:05:58.319Z,2.60
2019-02-10T06:06:58.318Z,2.80
2019-02-10T06:07:58.302Z,2.70
2019-02-10T06:08:58.290Z,2.70
2019-02-10T06:09:58.279Z,2.60
2019-02-10T06:10:58.271Z,2.80
2019-02-10T06:11:58.266Z,3.00
2019-02-10T06:12:58.269Z,2.80
2019-02-10T06:13:58.233Z,2.70
2019-02-10T06:14:58.222Z,3.00
2019-02-10T06:15:58.211Z,2.90
2019-02-10T06:16:58.209Z,3.20
2019-02-10T06:17:58.189Z,2.90
2019-02-10T06:18:58.178Z,3.20
2019-02-10T06:19:58.169Z,3.20
2019-02-10T06:20:58.157Z,3.40
2019-02-10T06:21:58.159Z,2.80
2019-02-10T06:22:58.137Z,3.80
2019-02-10T06:23:58.125Z,3.10
2019-02-10T06:24:58.113Z,2.90
2019-02-10T06:25:58.102Z,3.00
2019-02-10T06:26:58.102Z,2.70
2019-02-10T06:27:58.082Z,3.00
2019-02-10T06:28:58.071Z,2.80
2019-02-10T06:29:58.062Z,2.90
2019-02-10T06:30:58.051Z,3.00
2019-02-10T06:31:58.047Z,2.90
2019-02-10T06:32:58.027Z,2.80
2019-02-10T06:33:58.015Z,3.00
2019-02-10T06:34:58.017Z,3.30
2019-02-10T06:35:57.999Z,2.80
2019-02-10T06:36:57.995Z,2.90
2019-02-10T06:37:57.975Z,2.70
2019-02-10T06:38:57.977Z,2.60
2019-02-10T06:39:57.953Z,2.90
2019-02-10T06:40:57.943Z,2.80
2019-02-10T06:41:57.934Z,3.00
2019-02-10T06:42:57.928Z,2.60
2019-02-10T06:43:57.914Z,3.20
2019-02-10T06:44:57.898Z,3.00
2019-02-10T06:45:57.888Z,2.60
2019-02-10T06:46:57.878Z,3.00
2019-02-10T06:47:57.937Z,2.50
2019-02-10T06:48:57.856Z,2.90
2019-02-10T06:49:57.845Z,2.90
2019-02-10T06:50:57.836Z,2.90
2019-02-10T06:51:57.824Z,2.90
2019-02-10T06:52:57.824Z,2.80
2019-02-10T06:53:57.803Z,2.90
2019-02-10T06:54:57.794Z,3.00
2019-02-10T06:55:57.781Z,3.00
2019-02-10T06:56:57.772Z,3.10
2019-02-10T06:57:57.770Z,2.90
2019-02-10T06:58:57.748Z,2.70
2019-02-10T06:59:57.739Z,2.90
2019-02-10T07:00:57.729Z,3.00
2019-02-10T07:01:57.719Z,3.20
2019-02-10T07:02:57.715Z,2.70
2019-02-10T07:03:57.696Z,3.20
2019-02-10T07:04:57.684Z,3.10
2019-02-10T07:05:57.674Z,3.10
2019-02-10T07:06:57.665Z,3.00
2019-02-10T07:07:57.661Z,3.10
2019-02-10T07:08:57.641Z,3.40
2019-02-10T07:09:57.631Z,2.80
2019-02-10T07:10:57.620Z,3.00
2019-02-10T07:11:57.610Z,3.10
2019-02-10T07:12:57.606Z,3.00
2019-02-10T07:13:57.589Z,3.40
2019-02-10T07:14:57.577Z,2.90
2019-02-10T07:15:57.571Z,3.10
2019-02-10T07:16:57.554Z,2.80
2019-02-10T07:17:57.564Z,3.20
2019-02-10T07:18:57.539Z,3.20
2019-02-10T07:19:57.522Z,3.50
2019-02-10T07:20:57.512Z,3.50
2019-02-10T07:21:57.501Z,3.20
2019-02-10T07:22:57.492Z,3.00
2019-02-10T07:23:57.493Z,3.20
2019-02-10T07:24:57.468Z,2.70
2019-02-10T07:25:57.457Z,3.00
2019-02-10T07:26:57.448Z,2.80
2019-02-10T07:27:57.437Z,3.20
2019-02-10T07:28:57.439Z,3.20
2019-02-10T07:29:57.415Z,3.00
2019-02-10T07:30:57.405Z,3.20
2019-02-10T07:31:57.393Z,2.90
2019-02-10T07:32:57.382Z,3.30
2019-02-10T07:33:58.556Z,2.90
2019-02-10T07:34:57.367Z,3.20
2019-02-10T07:35:57.353Z,3.20
2019-02-10T07:36:57.340Z,2.80
2019-02-10T07:37:57.333Z,2.90
2019-02-10T07:38:57.329Z,3.20
2019-02-10T07:39:57.310Z,3.10
2019-02-10T07:40:57.301Z,3.60
2019-02-10T07:41:57.287Z,3.30
2019-02-10T07:42:57.277Z,3.00
2019-02-10T07:43:57.274Z,3.10
2019-02-10T07:44:57.256Z,3.20
2019-02-10T07:45:57.246Z,3.20
2019-02-10T07:46:57.233Z,3.00
2019-02-10T07:47:57.222Z,3.00
2019-02-10T07:48:57.220Z,3.10
2019-02-10T07:49:57.200Z,2.90
2019-02-10T07:50:57.190Z,2.80
2019-02-10T07:51:57.183Z,3.10
2019-02-10T07:52:57.169Z,3.00
2019-02-10T07:53:57.165Z,3.00
2019-02-10T07:54:57.151Z,3.20
2019-02-10T07:55:57.135Z,2.90
2019-02-10T07:56:57.125Z,3.10
2019-02-10T07:57:57.117Z,2.90
2019-02-10T07:58:57.125Z,3.10
2019-02-10T07:59:57.092Z,3.00
2019-02-10T08:00:57.089Z,3.00
2019-02-10T08:01:57.073Z,2.90
2019-02-10T08:02:57.062Z,2.80
2019-02-10T08:03:57.059Z,3.00
2019-02-10T08:04:57.040Z,3.20
2019-02-10T08:05:57.029Z,3.10
2019-02-10T08:06:57.019Z,3.10
2019-02-10T08:07:57.008Z,2.90
2019-02-10T08:08:57.006Z,3.20
2019-02-10T08:09:56.990Z,3.00
2019-02-10T08:10:56.975Z,3.20
2019-02-10T08:11:56.967Z,3.00
2019-02-10T08:12:56.954Z,3.20
2019-02-10T08:13:56.954Z,3.30
2019-02-10T08:14:56.936Z,3.10
2019-02-10T08:15:56.923Z,2.80
2019-02-10T08:16:56.912Z,3.10
2019-02-10T08:17:56.901Z,2.70
2019-02-10T08:18:56.898Z,2.80
2019-02-10T08:19:56.882Z,2.80
2019-02-10T08:20:56.873Z,2.80
2019-02-10T08:21:56.859Z,3.20
2019-02-10T08:22:56.847Z,2.90
2019-02-10T08:23:56.845Z,3.10
2019-02-10T08:24:56.826Z,2.80
2019-02-10T08:25:56.826Z,3.00
2019-02-10T08:26:56.804Z,3.10
2019-02-10T08:27:56.795Z,3.00
2019-02-10T08:28:56.827Z,3.30
2019-02-10T08:29:56.774Z,2.80
2019-02-10T08:30:56.762Z,3.20
2019-02-10T08:31:56.752Z,2.90
2019-02-10T08:32:56.741Z,3.00
2019-02-10T08:33:57.270Z,3.20
2019-02-10T08:34:56.726Z,3.10
2019-02-10T08:35:56.708Z,3.10
2019-02-10T08:36:56.697Z,3.20
2019-02-10T08:37:56.685Z,3.20
2019-02-10T08:38:56.681Z,3.00
2019-02-10T08:39:56.675Z,2.90
2019-02-10T08:40:56.657Z,3.20
2019-02-10T08:41:56.643Z,3.20
2019-02-10T08:42:56.634Z,3.20
2019-02-10T08:43:56.622Z,3.10
2019-02-10T08:44:56.618Z,3.10
2019-02-10T08:45:56.602Z,3.40
2019-02-10T08:46:56.593Z,3.30
2019-02-10T08:47:56.579Z,3.00
2019-02-10T08:48:56.573Z,3.00
2019-02-10T08:49:56.578Z,3.30
2019-02-10T08:50:56.548Z,3.20
2019-02-10T08:51:56.539Z,3.50
2019-02-10T08:52:56.526Z,3.20
2019-02-10T08:53:56.516Z,3.30
2019-02-10T08:54:56.513Z,3.00
2019-02-10T08:55:56.501Z,3.30
2019-02-10T08:56:56.483Z,3.60
2019-02-10T08:57:56.470Z,3.60
2019-02-10T08:58:56.460Z,3.20
2019-02-10T08:59:56.458Z,3.30
2019-02-10T09:00:56.438Z,3.30
2019-02-10T09:01:56.443Z,3.60
2019-02-10T09:02:56.421Z,3.80
2019-02-10T09:03:56.411Z,3.70
2019-02-10T09:04:56.412Z,3.60
2019-02-10T09:05:56.386Z,4.80
2019-02-10T09:06:56.382Z,3.70
2019-02-10T09:07:56.366Z,4.50
2019-02-10T09:09:02.466Z,3.50
2019-02-10T09:09:57.350Z,3.70
2019-02-10T09:10:56.333Z,3.40
2019-02-10T09:11:56.323Z,4.50
2019-02-10T09:12:56.319Z,4.20
2019-02-10T09:13:56.304Z,3.60
2019-02-10T09:14:56.298Z,3.80
2019-02-10T09:15:56.278Z,3.50
2019-02-10T09:16:56.266Z,3.50
2019-02-10T09:17:56.257Z,3.90
2019-02-10T09:18:56.248Z,4.10
2019-02-10T09:19:56.245Z,4.30
2019-02-10T09:20:56.224Z,3.60
2019-02-10T09:21:56.213Z,4.10
2019-02-10T09:22:56.202Z,4.20
2019-02-10T09:23:56.200Z,4.20
2019-02-10T09:24:56.225Z,4.50
2019-02-10T09:25:56.170Z,4.50
2019-02-10T09:26:56.158Z,4.70
2019-02-10T09:27:56.147Z,4.60
2019-02-10T09:28:56.137Z,4.60
2019-02-10T09:29:56.130Z,4.50
2019-02-10T09:30:56.126Z,4.40
2019-02-10T09:31:56.105Z,4.50
2019-02-10T09:32:56.093Z,5.10
2019-02-10T09:33:56.085Z,4.10
2019-02-10T09:34:56.077Z,4.60
2019-02-10T09:35:56.074Z,4.00
2019-02-10T09:36:56.060Z,4.60
2019-02-10T09:37:56.039Z,5.10
2019-02-10T09:38:56.029Z,4.30
2019-02-10T09:39:56.023Z,4.80
2019-02-10T09:40:56.015Z,4.80
2019-02-10T09:41:56.002Z,4.20
2019-02-10T09:42:55.990Z,4.20
2019-02-10T09:43:55.979Z,4.60
2019-02-10T09:44:55.965Z,4.20
2019-02-10T09:45:55.963Z,4.90
2019-02-10T09:46:55.943Z,4.40
2019-02-10T09:47:55.935Z,4.60
2019-02-10T09:48:55.923Z,4.30
2019-02-10T09:49:55.915Z,4.50
2019-02-10T09:50:55.913Z,4.50
2019-02-10T09:51:55.892Z,4.40
2019-02-10T09:52:55.883Z,4.10
2019-02-10T09:53:55.869Z,4.40
2019-02-10T09:54:55.859Z,4.60
2019-02-10T09:55:55.856Z,4.40
2019-02-10T09:56:55.838Z,4.30
2019-02-10T09:57:55.829Z,4.30
2019-02-10T09:58:55.817Z,4.10
2019-02-10T09:59:55.810Z,4.10
2019-02-10T10:00:55.807Z,4.40
2019-02-10T10:01:55.784Z,3.90
2019-02-10T10:02:55.774Z,4.30
2019-02-10T10:03:55.763Z,4.30
2019-02-10T10:04:55.751Z,4.20
2019-02-10T10:05:55.752Z,4.30
2019-02-10T10:06:55.730Z,3.90
2019-02-10T10:07:55.721Z,4.10
2019-02-10T10:08:55.709Z,4.00
2019-02-10T10:09:55.701Z,4.40
2019-02-10T10:10:55.700Z,4.60
2019-02-10T10:11:55.680Z,4.10
2019-02-10T10:12:55.666Z,4.00
2019-02-10T10:13:55.700Z,3.70
2019-02-10T10:14:55.646Z,3.90
2019-02-10T10:15:55.643Z,4.00
2019-02-10T10:16:55.623Z,3.80
2019-02-10T10:17:55.615Z,4.30
2019-02-10T10:18:55.603Z,3.80
2019-02-10T10:19:55.593Z,4.20
2019-02-10T10:20:55.589Z,4.10
2019-02-10T10:21:55.571Z,3.60
2019-02-10T10:22:55.563Z,4.30
2019-02-10T10:23:55.548Z,3.90
2019-02-10T10:24:55.539Z,4.10
2019-02-10T10:25:55.535Z,4.40
2019-02-10T10:26:55.517Z,4.20
2019-02-10T10:27:55.515Z,4.00
2019-02-10T10:28:55.498Z,4.10
2019-02-10T10:29:55.484Z,3.90
2019-02-10T10:30:55.482Z,3.90
2019-02-10T10:31:55.463Z,4.30
2019-02-10T10:32:55.452Z,4.20
2019-02-10T10:33:55.443Z,4.00
2019-02-10T10:34:55.431Z,3.90
2019-02-10T10:35:55.435Z,4.40
2019-02-10T10:36:55.410Z,4.30
2019-02-10T10:37:55.398Z,4.30
2019-02-10T10:38:55.387Z,4.10
2019-02-10T10:39:55.378Z,4.80
2019-02-10T10:40:55.376Z,4.70
2019-02-10T10:41:55.356Z,3.90
2019-02-10T10:42:55.349Z,4.60
2019-02-10T10:43:55.343Z,4.50
2019-02-10T10:44:55.324Z,4.80
2019-02-10T10:45:55.337Z,4.20
2019-02-10T10:46:55.327Z,4.40
2019-02-10T10:47:55.293Z,4.70
2019-02-10T10:48:55.282Z,5.00
2019-02-10T10:49:55.271Z,4.20
2019-02-10T10:50:55.268Z,5.00
2019-02-10T10:51:55.249Z,4.10
2019-02-10T10:52:55.243Z,4.60
2019-02-10T10:53:55.228Z,5.00
2019-02-10T10:54:55.216Z,4.50
2019-02-10T10:55:55.214Z,5.00
2019-02-10T10:56:55.197Z,4.30
2019-02-10T10:57:55.188Z,4.80
2019-02-10T10:58:55.174Z,4.40
2019-02-10T10:59:55.173Z,4.10
2019-02-10T11:00:55.291Z,4.20
2019-02-10T11:01:55.142Z,4.50
2019-02-10T11:02:55.134Z,4.10
2019-02-10T11:03:55.120Z,4.80
2019-02-10T11:04:55.109Z,4.10
2019-02-10T11:05:55.107Z,4.40
2019-02-10T11:06:55.088Z,4.40
2019-02-10T11:07:55.076Z,4.20
2019-02-10T11:08:55.067Z,4.60
2019-02-10T11:09:55.076Z,4.10
2019-02-10T11:10:55.105Z,4.60
2019-02-10T11:11:55.034Z,4.20
2019-02-10T11:12:55.025Z,4.50
2019-02-10T11:13:55.016Z,4.60
2019-02-10T11:14:55.003Z,4.40
2019-02-10T11:15:54.994Z,4.90
2019-02-10T11:16:54.989Z,4.60
2019-02-10T11:17:54.970Z,4.40
2019-02-10T11:18:54.960Z,4.90
2019-02-10T11:19:54.951Z,4.00
2019-02-10T11:20:54.937Z,4.10
2019-02-10T11:21:54.937Z,3.90
2019-02-10T11:22:54.918Z,4.10
2019-02-10T11:23:54.905Z,4.40
2019-02-10T11:24:54.895Z,4.40
2019-02-10T11:25:54.885Z,4.10
2019-02-10T11:26:54.883Z,4.70
2019-02-10T11:27:54.869Z,4.30
2019-02-10T11:28:54.852Z,4.00
2019-02-10T11:29:54.842Z,4.30
2019-02-10T11:30:54.833Z,4.20
2019-02-10T11:31:54.829Z,4.60
2019-02-10T11:32:54.815Z,4.40
2019-02-10T11:33:54.799Z,4.10
2019-02-10T11:34:54.787Z,4.50
2019-02-10T11:35:54.778Z,3.90
2019-02-10T11:36:54.776Z,4.20
2019-02-10T11:37:54.760Z,4.40
2019-02-10T11:38:54.744Z,4.50
2019-02-10T11:39:54.737Z,3.80
2019-02-10T11:40:54.725Z,4.00
2019-02-10T11:41:54.721Z,4.20
2019-02-10T11:42:54.703Z,4.00
2019-02-10T11:43:54.692Z,4.20
2019-02-10T11:44:54.681Z,4.00
2019-02-10T11:45:54.669Z,3.80
2019-02-10T11:46:54.671Z,4.30
2019-02-10T11:47:54.649Z,4.10
2019-02-10T11:48:54.638Z,4.30
2019-02-10T11:49:54.628Z,4.40
2019-02-10T11:50:54.617Z,4.10
2019-02-10T11:51:54.615Z,4.10
2019-02-10T11:52:54.594Z,4.10
2019-02-10T11:53:54.585Z,4.40
2019-02-10T11:54:54.574Z,4.50
2019-02-10T11:55:54.564Z,3.90
2019-02-10T11:56:54.584Z,4.10
2019-02-10T11:57:54.541Z,3.90
2019-02-10T11:58:54.530Z,4.30
2019-02-10T11:59:54.518Z,4.50
2019-02-10T12:00:54.515Z,3.90
2019-02-10T12:01:54.506Z,4.50
2019-02-10T12:02:54.495Z,4.50
2019-02-10T12:03:54.479Z,4.50
2019-02-10T12:04:54.464Z,4.70
2019-02-10T12:05:54.456Z,4.40
2019-02-10T12:06:54.445Z,4.90
2019-02-10T12:07:54.441Z,4.20
2019-02-10T12:08:54.425Z,5.00
2019-02-10T12:09:54.413Z,4.70
2019-02-10T12:10:54.399Z,4.80
2019-02-10T12:11:54.389Z,4.20
2019-02-10T12:12:54.388Z,4.40
2019-02-10T12:13:54.372Z,4.30
2019-02-10T12:14:54.360Z,4.50
2019-02-10T12:15:54.347Z,4.20
2019-02-10T12:16:54.333Z,4.10
2019-02-10T12:17:54.330Z,4.80
2019-02-10T12:18:54.316Z,4.50
2019-02-10T12:19:54.305Z,3.90
2019-02-10T12:20:54.291Z,4.80
2019-02-10T12:21:54.280Z,6.20
2019-02-10T12:22:54.278Z,4.50
2019-02-10T12:23:54.263Z,4.60
2019-02-10T12:24:54.250Z,4.10
2019-02-10T12:25:54.238Z,5.30
2019-02-10T12:26:54.226Z,4.30
2019-02-10T12:27:54.223Z,4.10
2019-02-10T12:28:54.203Z,4.50
2019-02-10T12:29:54.194Z,4.20
2019-02-10T12:30:54.183Z,4.60
2019-02-10T12:31:54.177Z,4.70
2019-02-10T12:32:54.168Z,4.00
2019-02-10T12:33:54.163Z,4.00
2019-02-10T12:34:54.138Z,4.00
2019-02-10T12:35:58.376Z,4.40
2019-02-10T12:36:54.118Z,4.00
2019-02-10T12:37:54.116Z,3.70
2019-02-10T12:38:54.095Z,4.20
2019-02-10T12:39:59.665Z,4.30
2019-02-10T12:40:55.072Z,4.20
2019-02-10T12:41:54.064Z,4.30
2019-02-10T12:42:54.060Z,4.30
2019-02-10T12:43:54.044Z,4.00
2019-02-10T12:44:54.034Z,4.00
2019-02-10T12:45:54.022Z,3.60
2019-02-10T12:46:54.014Z,3.80
2019-02-10T12:47:54.007Z,3.60
2019-02-10T12:48:53.987Z,3.60
2019-02-10T12:49:53.976Z,3.60
2019-02-10T12:50:53.964Z,3.40
2019-02-10T12:51:53.952Z,3.60
2019-02-10T12:52:53.952Z,3.70
2019-02-10T12:53:53.938Z,3.50
2019-02-10T12:54:53.924Z,3.50
2019-02-10T12:55:53.908Z,3.70
2019-02-10T12:56:53.899Z,3.50
2019-02-10T12:57:53.898Z,3.70
2019-02-10T12:58:53.877Z,4.20
2019-02-10T12:59:53.866Z,3.40
2019-02-10T13:00:53.855Z,3.70
2019-02-10T13:01:53.844Z,4.10
2019-02-10T13:02:53.840Z,3.90
2019-02-10T13:03:53.823Z,3.50
2019-02-10T13:04:53.811Z,3.90
2019-02-10T13:05:53.804Z,3.90
2019-02-10T13:06:53.790Z,4.40
2019-02-10T13:07:53.788Z,3.90
2019-02-10T13:08:53.769Z,3.60
2019-02-10T13:09:53.758Z,3.60
2019-02-10T13:10:53.750Z,3.70
2019-02-10T13:11:58.521Z,4.20
2019-02-10T13:12:53.734Z,4.10
2019-02-10T13:13:53.715Z,3.80
2019-02-10T13:14:53.704Z,3.50
2019-02-10T13:15:55.492Z,3.80
2019-02-10T13:16:53.683Z,3.30
2019-02-10T13:17:53.685Z,3.70